Time;durP1;ratioP1;P1;durP2;ratioP2;P2;SDS_P1;SDS_P2;PMS_P1;PMS_P2;Temp;Humidity;BMP_temperature;BMP_pressure;BME280_temperature;BME280_humidity;BME280_pressure;Samples;Min_cycle;Max_cycle;Signal;HPM_P1;HPM_P2
2023/11/28 00:01:36;;;;;;;1.00;1.00;;;-10.20;99.90;;;;;;5070735;28;20208;-67
2023/11/28 00:04:01;;;;;;;0.83;0.83;;;-10.20;99.90;;;;;;5068976;28;20234;-68
2023/11/28 00:06:27;;;;;;;0.90;0.90;;;-10.30;99.90;;;;;;5070642;28;20268;-67
2023/11/28 00:08:53;;;;;;;0.90;0.90;;;-10.30;99.90;;;;;;5070930;28;20193;-67
2023/11/28 00:11:20;;;;;;;0.90;0.90;;;-10.30;99.90;;;;;;5070941;28;20201;-67
2023/11/28 00:13:46;;;;;;;1.10;1.10;;;-10.30;99.90;;;;;;5071377;28;20204;-68
2023/11/28 00:16:12;;;;;;;1.00;1.00;;;-10.30;99.90;;;;;;5070901;28;20275;-67
2023/11/28 00:18:38;;;;;;;0.90;0.90;;;-10.30;99.90;;;;;;5070747;28;20193;-67
2023/11/28 00:21:04;;;;;;;1.00;1.00;;;-10.30;99.90;;;;;;5069563;28;20754;-67
2023/11/28 00:23:29;;;;;;;0.90;0.90;;;-10.30;99.90;;;;;;5070844;28;20193;-66
2023/11/28 00:25:55;;;;;;;1.00;1.00;;;-10.30;99.90;;;;;;5070776;28;20208;-67
2023/11/28 00:28:20;;;;;;;1.00;1.00;;;-10.40;99.90;;;;;;5070575;28;20208;-67
2023/11/28 00:30:46;;;;;;;1.00;1.00;;;-10.40;99.90;;;;;;5070338;28;20215;-67
2023/11/28 00:33:12;;;;;;;1.00;1.00;;;-10.40;99.90;;;;;;5070542;28;20205;-68
2023/11/28 00:35:41;;;;;;;0.90;0.90;;;-10.40;99.90;;;;;;5070351;28;20551;-67
2023/11/28 00:38:06;;;;;;;0.90;0.90;;;-10.40;99.90;;;;;;5063353;28;20628;-67
2023/11/28 00:40:33;;;;;;;0.80;0.80;;;-10.40;99.90;;;;;;5070384;28;20201;-66
2023/11/28 00:42:59;;;;;;;1.00;1.00;;;-10.40;99.90;;;;;;5069001;28;20213;-68
2023/11/28 00:45:25;;;;;;;0.90;0.90;;;-10.40;99.90;;;;;;5070152;28;20212;-67
2023/11/28 00:47:54;;;;;;;1.00;1.00;;;-10.50;99.90;;;;;;5068993;28;20287;-67
2023/11/28 00:50:20;;;;;;;0.90;0.90;;;-10.50;99.90;;;;;;5069015;28;20243;-67
2023/11/28 00:52:47;;;;;;;1.00;1.00;;;-10.50;99.90;;;;;;5070215;28;20244;-67
2023/11/28 00:55:14;;;;;;;1.00;1.00;;;-10.50;99.90;;;;;;5070001;28;20207;-67
2023/11/28 00:57:42;;;;;;;1.00;1.00;;;-10.50;99.90;;;;;;5068517;28;20735;-68
2023/11/28 01:00:08;;;;;;;0.90;0.90;;;-10.60;99.90;;;;;;5068705;28;20676;-67
2023/11/28 01:02:34;;;;;;;0.90;0.90;;;-10.60;99.90;;;;;;5069999;28;20193;-67
2023/11/28 01:05:00;;;;;;;1.00;1.00;;;-10.60;99.90;;;;;;5070519;28;20235;-67
2023/11/28 01:07:25;;;;;;;1.00;1.00;;;-10.60;99.90;;;;;;5069777;28;20208;-67
2023/11/28 01:09:52;;;;;;;1.00;1.00;;;-10.60;99.90;;;;;;5068280;28;20317;-67
2023/11/28 01:12:19;;;;;;;1.00;1.00;;;-10.60;99.90;;;;;;5069935;28;20192;-67
2023/11/28 01:14:45;;;;;;;0.90;0.90;;;-10.60;99.90;;;;;;5069495;28;20209;-67
2023/11/28 01:17:10;;;;;;;1.00;1.00;;;-10.60;99.90;;;;;;5069714;28;20284;-67
2023/11/28 01:19:38;;;;;;;0.90;0.90;;;-10.60;99.90;;;;;;5067840;28;20722;-67
2023/11/28 01:22:04;;;;;;;1.10;1.10;;;-10.60;99.90;;;;;;5069423;28;20204;-67
2023/11/28 01:24:30;;;;;;;1.00;1.00;;;-10.60;99.90;;;;;;5069337;28;20204;-67
2023/11/28 01:26:55;;;;;;;1.00;1.00;;;-10.60;99.90;;;;;;5069444;28;20274;-67
2023/11/28 01:29:21;;;;;;;0.80;0.80;;;-10.60;99.90;;;;;;5067785;28;20211;-66
2023/11/28 01:31:47;;;;;;;1.00;1.00;;;-10.60;99.90;;;;;;5067964;28;20637;-67
2023/11/28 01:34:13;;;;;;;1.00;1.00;;;-10.50;99.90;;;;;;5068993;28;20287;-67
2023/11/28 01:36:40;;;;;;;0.93;0.93;;;-10.50;99.90;;;;;;5068942;28;20291;-67
2023/11/28 01:39:07;;;;;;;1.00;1.00;;;-10.50;99.90;;;;;;5069207;28;20193;-67
2023/11/28 01:41:34;;;;;;;1.00;1.00;;;-10.50;99.90;;;;;;5069034;28;20581;-67
2023/11/28 01:44:06;;;;;;;1.00;1.00;;;-10.50;99.90;;;;;;5067701;28;20201;-66
2023/11/28 01:46:36;;;;;;;1.00;1.00;;;-10.40;99.90;;;;;;5069094;28;20247;-67
2023/11/28 01:49:02;;;;;;;1.00;1.00;;;-10.40;99.90;;;;;;5068858;28;20193;-67
2023/11/28 01:51:29;;;;;;;1.00;1.00;;;-10.40;99.90;;;;;;5068095;28;20243;-67
2023/11/28 01:53:59;;;;;;;0.90;0.90;;;-10.30;99.90;;;;;;5069155;28;20201;-69
2023/11/28 01:56:24;;;;;;;0.83;0.83;;;-10.30;99.90;;;;;;5068886;28;20208;-69
2023/11/28 01:58:53;;;;;;;0.90;0.90;;;-10.20;99.90;;;;;;5068902;28;20652;-69
2023/11/28 02:01:20;;;;;;;1.00;1.00;;;-10.20;99.90;;;;;;5068950;28;20703;-69
2023/11/28 02:03:47;;;;;;;0.90;0.90;;;-10.10;99.90;;;;;;5061182;28;20671;-69
2023/11/28 02:06:13;;;;;;;0.90;0.90;;;-10.00;99.90;;;;;;5048920;28;20285;-69
2023/11/28 02:08:39;;;;;;;1.00;1.00;;;-10.00;99.90;;;;;;5048601;28;20620;-70
2023/11/28 02:11:05;;;;;;;0.90;0.90;;;-10.00;99.90;;;;;;5047302;28;20204;-69
2023/11/28 02:13:35;;;;;;;1.00;1.00;;;-9.90;99.90;;;;;;5049045;28;20204;-68
2023/11/28 02:16:13;;;;;;;1.00;1.00;;;-9.90;99.90;;;;;;5046874;28;20657;-68
2023/11/28 02:18:42;;;;;;;0.90;0.90;;;-9.90;99.90;;;;;;5048420;28;20706;-68
2023/11/28 02:21:10;;;;;;;1.10;1.10;;;-9.80;99.90;;;;;;5048761;28;20209;-67
2023/11/28 02:23:36;;;;;;;0.93;0.93;;;-9.80;99.90;;;;;;5063854;28;20228;-67
2023/11/28 02:26:25;;;;;;;0.90;0.90;;;-9.80;99.90;;;;;;5068158;28;20204;-68
2023/11/28 02:28:52;;;;;;;0.90;0.90;;;-9.80;99.90;;;;;;5063888;28;20194;-68
2023/11/28 02:31:18;;;;;;;0.90;0.90;;;-9.70;99.90;;;;;;5066117;28;20572;-68
2023/11/28 02:33:44;;;;;;;1.00;1.00;;;-9.70;99.90;;;;;;5068424;28;20671;-68
2023/11/28 02:36:10;;;;;;;0.90;0.90;;;-9.70;99.90;;;;;;5067302;28;20212;-67
2023/11/28 02:38:36;;;;;;;1.00;1.00;;;-9.70;99.90;;;;;;5068368;28;20201;-68
2023/11/28 02:41:02;;;;;;;0.90;0.90;;;-9.70;99.90;;;;;;5068753;28;20196;-67
2023/11/28 02:43:27;;;;;;;0.90;0.90;;;-9.70;99.90;;;;;;5068324;28;20208;-68
2023/11/28 02:45:53;;;;;;;1.00;1.00;;;-9.70;99.90;;;;;;5068401;28;20213;-68
2023/11/28 02:48:19;;;;;;;0.90;0.90;;;-9.70;99.90;;;;;;5068321;28;20242;-68
2023/11/28 02:50:45;;;;;;;0.90;0.90;;;-9.70;99.90;;;;;;5068319;28;20609;-68
2023/11/28 02:53:10;;;;;;;1.00;1.00;;;-9.70;99.90;;;;;;5068323;28;20622;-68
2023/11/28 02:55:36;;;;;;;1.00;1.00;;;-9.70;99.90;;;;;;5068426;28;20209;-68
2023/11/28 02:58:02;;;;;;;0.90;0.90;;;-9.70;99.90;;;;;;5068399;28;20275;-68
2023/11/28 03:00:27;;;;;;;1.00;1.00;;;-9.60;99.90;;;;;;5068243;28;20200;-68
2023/11/28 03:02:53;;;;;;;0.90;0.90;;;-9.60;99.90;;;;;;5071932;28;20265;-69
2023/11/28 03:05:19;;;;;;;0.93;0.93;;;-9.60;99.90;;;;;;5072149;28;20217;-69
2023/11/28 03:07:44;;;;;;;0.90;0.90;;;-9.60;99.90;;;;;;5072232;28;20255;-69
2023/11/28 03:10:10;;;;;;;1.00;1.00;;;-9.60;99.90;;;;;;5072135;28;20219;-70
2023/11/28 03:12:36;;;;;;;0.90;0.90;;;-9.60;99.90;;;;;;5072126;28;20200;-69
2023/11/28 03:15:05;;;;;;;1.00;1.00;;;-9.60;99.90;;;;;;5071805;28;20216;-69
2023/11/28 03:17:30;;;;;;;1.00;1.00;;;-9.60;99.90;;;;;;5070304;28;20315;-69
2023/11/28 03:19:57;;;;;;;0.90;0.90;;;-9.60;99.90;;;;;;5071833;28;20292;-69
2023/11/28 03:22:22;;;;;;;1.00;1.00;;;-9.60;99.90;;;;;;5071679;28;20201;-69
2023/11/28 03:24:50;;;;;;;1.00;1.00;;;-9.60;99.90;;;;;;5071635;28;20243;-69
2023/11/28 03:27:18;;;;;;;0.90;0.90;;;-9.60;99.90;;;;;;5071683;28;20602;-69
2023/11/28 03:29:44;;;;;;;0.90;0.90;;;-9.50;99.90;;;;;;5070226;28;20544;-69
2023/11/28 03:32:10;;;;;;;1.00;1.00;;;-9.50;99.90;;;;;;5071842;28;20197;-69
2023/11/28 03:34:38;;;;;;;1.00;1.00;;;-9.50;99.90;;;;;;5071292;28;20193;-70
2023/11/28 03:37:03;;;;;;;0.90;0.90;;;-9.60;99.90;;;;;;5071384;28;20731;-69
2023/11/28 03:39:29;;;;;;;0.90;0.90;;;-9.50;99.90;;;;;;5071556;28;20196;-69
2023/11/28 03:41:55;;;;;;;0.90;0.90;;;-9.50;99.90;;;;;;5071882;28;20201;-69
2023/11/28 03:44:20;;;;;;;1.00;1.00;;;-9.50;99.90;;;;;;5071096;28;20316;-69
2023/11/28 03:46:46;;;;;;;0.97;0.97;;;-9.50;99.90;;;;;;5071362;28;20204;-69
2023/11/28 03:49:12;;;;;;;1.00;1.00;;;-9.50;99.90;;;;;;5071299;28;20203;-69
2023/11/28 03:51:38;;;;;;;0.90;0.90;;;-9.50;99.90;;;;;;5071106;28;20235;-70
2023/11/28 03:54:04;;;;;;;1.00;1.00;;;-9.50;99.90;;;;;;5069819;28;20204;-69
2023/11/28 03:56:29;;;;;;;0.87;0.87;;;-9.50;99.90;;;;;;5071101;28;20275;-69
2023/11/28 03:58:55;;;;;;;0.90;0.90;;;-9.50;99.90;;;;;;5071183;28;20538;-69
2023/11/28 04:01:22;;;;;;;0.90;0.90;;;-9.50;99.90;;;;;;5062213;28;20243;-70
2023/11/28 04:03:48;;;;;;;0.90;0.90;;;-9.60;99.90;;;;;;5071012;28;20209;-70
2023/11/28 04:06:13;;;;;;;0.90;0.90;;;-9.60;99.90;;;;;;5071115;28;20224;-69
2023/11/28 04:08:39;;;;;;;0.90;0.90;;;-9.60;99.90;;;;;;5071146;28;20230;-69
2023/11/28 04:11:05;;;;;;;0.90;0.90;;;-9.50;99.90;;;;;;5071175;28;20200;-70
2023/11/28 04:13:31;;;;;;;0.90;0.90;;;-9.50;99.90;;;;;;5070299;28;20196;-68
2023/11/28 04:15:57;;;;;;;0.90;0.90;;;-9.50;99.90;;;;;;5070908;28;20216;-68
2023/11/28 04:18:24;;;;;;;0.93;0.93;;;-9.50;99.90;;;;;;5070733;28;20205;-66
2023/11/28 04:20:50;;;;;;;1.00;1.00;;;-9.50;99.90;;;;;;5070712;28;20578;-67
2023/11/28 04:23:15;;;;;;;0.90;0.90;;;-9.50;99.90;;;;;;5064189;28;20205;-66
2023/11/28 04:25:42;;;;;;;0.80;0.80;;;-9.50;99.90;;;;;;5070705;28;20212;-67
2023/11/28 04:28:07;;;;;;;0.90;0.90;;;-9.50;99.90;;;;;;5070957;28;20271;-67
2023/11/28 04:30:33;;;;;;;1.00;1.00;;;-9.40;99.90;;;;;;5070615;28;20293;-66
2023/11/28 04:32:59;;;;;;;0.90;0.90;;;-9.50;99.90;;;;;;5070793;28;20189;-67
2023/11/28 04:35:24;;;;;;;0.90;0.90;;;-9.50;99.90;;;;;;5068929;28;20201;-67
2023/11/28 04:37:50;;;;;;;0.90;0.90;;;-9.50;99.90;;;;;;5070250;28;20239;-68
2023/11/28 04:40:16;;;;;;;0.90;0.90;;;-9.50;99.90;;;;;;5069057;28;20254;-67
2023/11/28 04:42:41;;;;;;;1.00;1.00;;;-9.50;99.90;;;;;;5070418;28;20201;-68
2023/11/28 04:45:11;;;;;;;0.87;0.87;;;-9.50;99.90;;;;;;5070147;28;20295;-67
2023/11/28 04:47:37;;;;;;;0.90;0.90;;;-9.60;99.90;;;;;;5069963;28;20188;-67
2023/11/28 04:50:06;;;;;;;0.90;0.90;;;-9.70;99.90;;;;;;5070105;28;20750;-67
2023/11/28 04:52:32;;;;;;;0.97;0.97;;;-9.70;99.90;;;;;;5069621;28;20327;-68
2023/11/28 04:54:58;;;;;;;0.90;0.90;;;-9.70;99.90;;;;;;5068687;28;20292;-67
2023/11/28 04:57:23;;;;;;;0.90;0.90;;;-9.80;99.90;;;;;;5069784;28;20208;-67
2023/11/28 04:59:49;;;;;;;0.90;0.90;;;-9.80;99.90;;;;;;5068618;28;20656;-67
2023/11/28 05:02:15;;;;;;;0.90;0.90;;;-9.80;99.90;;;;;;5069833;28;20207;-68
2023/11/28 05:04:40;;;;;;;0.80;0.80;;;-9.80;99.90;;;;;;5069660;28;20617;-67
2023/11/28 05:07:06;;;;;;;0.90;0.90;;;-9.80;99.90;;;;;;5069908;28;20625;-67
2023/11/28 05:09:32;;;;;;;0.90;0.90;;;-9.80;99.90;;;;;;5069949;28;20781;-67
2023/11/28 05:11:57;;;;;;;0.90;0.90;;;-9.90;99.90;;;;;;5068343;28;20224;-68
2023/11/28 05:14:23;;;;;;;0.90;0.90;;;-9.90;99.90;;;;;;5069695;28;20630;-67
2023/11/28 05:16:49;;;;;;;0.90;0.90;;;-9.90;99.90;;;;;;5069588;28;20200;-67
2023/11/28 05:19:15;;;;;;;0.90;0.90;;;-9.90;99.90;;;;;;5062213;28;20215;-67
2023/11/28 05:21:40;;;;;;;1.00;1.00;;;-9.90;99.90;;;;;;5069695;28;20201;-68
2023/11/28 05:24:08;;;;;;;0.90;0.90;;;-9.80;99.90;;;;;;5069617;28;20205;-68
2023/11/28 05:26:34;;;;;;;0.90;0.90;;;-9.90;99.90;;;;;;5069287;28;20692;-68
2023/11/28 05:29:00;;;;;;;0.80;0.80;;;-9.90;99.90;;;;;;5069554;28;20227;-68
2023/11/28 05:31:26;;;;;;;0.97;0.97;;;-9.90;99.90;;;;;;5067685;28;20245;-68
2023/11/28 05:33:52;;;;;;;0.87;0.87;;;-9.90;99.90;;;;;;5069185;28;20193;-68
2023/11/28 05:36:17;;;;;;;0.80;0.80;;;-9.90;99.90;;;;;;5069208;28;20323;-68
2023/11/28 05:38:43;;;;;;;1.00;1.00;;;-9.90;99.90;;;;;;5067576;28;20569;-68
2023/11/28 05:41:09;;;;;;;0.83;0.83;;;-9.80;99.90;;;;;;5069018;28;20563;-68
2023/11/28 05:43:35;;;;;;;1.00;1.00;;;-9.80;99.90;;;;;;5069863;28;20637;-69
2023/11/28 05:46:01;;;;;;;0.90;0.90;;;-9.80;99.90;;;;;;5068962;28;20676;-70
2023/11/28 05:48:26;;;;;;;1.00;1.00;;;-9.80;99.90;;;;;;5064109;28;20664;-69
2023/11/28 05:50:53;;;;;;;1.00;1.00;;;-9.80;99.90;;;;;;5049456;28;20197;-69
2023/11/28 05:53:19;;;;;;;1.00;1.00;;;-9.80;99.90;;;;;;5049129;28;20292;-69
2023/11/28 05:55:46;;;;;;;0.90;0.90;;;-9.80;99.90;;;;;;5049712;28;20551;-69
2023/11/28 05:58:12;;;;;;;0.90;0.90;;;-9.70;99.90;;;;;;5049197;28;20202;-70
2023/11/28 06:00:38;;;;;;;1.00;1.00;;;-9.80;99.90;;;;;;5049041;28;20589;-69
2023/11/28 06:03:05;;;;;;;0.90;0.90;;;-9.70;99.90;;;;;;5048939;28;20201;-69
2023/11/28 06:05:31;;;;;;;0.87;0.87;;;-9.70;99.90;;;;;;5047368;28;20294;-69
2023/11/28 06:07:57;;;;;;;0.90;0.90;;;-9.70;99.90;;;;;;5058771;28;20683;-70
2023/11/28 06:10:22;;;;;;;0.90;0.90;;;-9.70;99.90;;;;;;5068767;28;20197;-68
2023/11/28 06:12:48;;;;;;;0.90;0.90;;;-9.70;99.90;;;;;;5069444;28;20291;-69
2023/11/28 06:15:14;;;;;;;0.90;0.90;;;-9.70;99.90;;;;;;5068677;28;20213;-69
2023/11/28 06:17:40;;;;;;;0.90;0.90;;;-9.70;99.90;;;;;;5068769;28;20279;-70
2023/11/28 06:20:06;;;;;;;0.80;0.80;;;-9.60;99.90;;;;;;5068665;28;20296;-69
2023/11/28 06:22:32;;;;;;;0.90;0.90;;;-9.60;99.90;;;;;;5068737;28;20685;-69
2023/11/28 06:24:58;;;;;;;0.87;0.87;;;-9.60;99.90;;;;;;5068470;28;20288;-69
2023/11/28 06:27:25;;;;;;;0.90;0.90;;;-9.50;99.90;;;;;;5067153;28;20684;-69
2023/11/28 06:29:51;;;;;;;0.90;0.90;;;-9.40;99.90;;;;;;5068653;28;20199;-69
2023/11/28 06:32:16;;;;;;;1.00;1.00;;;-9.40;99.90;;;;;;5068643;28;20192;-69
2023/11/28 06:34:42;;;;;;;0.90;0.90;;;-9.40;99.90;;;;;;5069075;28;20207;-68
2023/11/28 06:37:08;;;;;;;0.90;0.90;;;-9.30;99.90;;;;;;5070555;28;20570;-67
2023/11/28 06:39:34;;;;;;;0.80;0.80;;;-9.30;99.90;;;;;;5071212;28;20205;-68
2023/11/28 06:42:00;;;;;;;0.90;0.90;;;-9.20;99.90;;;;;;5072949;28;20227;-67
2023/11/28 06:44:27;;;;;;;0.90;0.90;;;-9.20;99.90;;;;;;5069607;28;20203;-68
2023/11/28 06:46:53;;;;;;;0.90;0.90;;;-9.20;99.90;;;;;;5052551;28;20246;-68
2023/11/28 06:49:19;;;;;;;0.90;0.90;;;-9.20;99.90;;;;;;5052382;28;20563;-68
2023/11/28 06:51:45;;;;;;;1.00;1.00;;;-9.20;99.90;;;;;;5052206;28;20710;-68
2023/11/28 06:54:11;;;;;;;1.00;1.00;;;-9.20;99.90;;;;;;5050920;28;20197;-68
2023/11/28 06:56:37;;;;;;;0.93;0.93;;;-9.10;99.90;;;;;;5052249;28;20197;-68
2023/11/28 06:59:03;;;;;;;1.60;1.50;;;-9.10;99.90;;;;;;5052506;28;20221;-68
2023/11/28 07:01:29;;;;;;;2.13;1.87;;;-9.10;99.90;;;;;;5051969;28;20194;-68
2023/11/28 07:03:55;;;;;;;0.83;0.83;;;-9.10;99.90;;;;;;5059665;28;20201;-68
2023/11/28 07:06:20;;;;;;;0.90;0.90;;;-9.00;99.90;;;;;;5072235;28;20300;-68
2023/11/28 07:08:46;;;;;;;1.10;1.10;;;-9.00;99.90;;;;;;5072105;28;20250;-68
2023/11/28 07:11:21;;;;;;;0.90;0.90;;;-9.00;99.90;;;;;;5070176;28;20200;-68
2023/11/28 07:13:47;;;;;;;0.90;0.90;;;-8.90;99.90;;;;;;5072504;28;20983;-70
2023/11/28 07:16:14;;;;;;;0.90;0.90;;;-8.90;99.90;;;;;;5072082;28;20216;-70
2023/11/28 07:18:41;;;;;;;1.13;1.13;;;-8.80;99.90;;;;;;5071686;28;20283;-71
2023/11/28 07:21:07;;;;;;;1.00;1.00;;;-8.80;99.90;;;;;;5071797;28;20207;-70
2023/11/28 07:23:33;;;;;;;0.90;0.90;;;-8.80;99.90;;;;;;5071891;28;20220;-70
2023/11/28 07:25:59;;;;;;;0.80;0.80;;;-8.70;99.90;;;;;;5071736;28;20561;-70
2023/11/28 07:28:25;;;;;;;0.80;0.80;;;-8.60;99.90;;;;;;5071813;28;20197;-70
2023/11/28 07:30:51;;;;;;;0.80;0.80;;;-8.60;99.90;;;;;;5071781;28;20193;-70
2023/11/28 07:33:18;;;;;;;0.80;0.80;;;-8.60;99.90;;;;;;5071606;28;20569;-70
2023/11/28 07:35:44;;;;;;;1.00;1.00;;;-8.50;99.90;;;;;;5071706;28;20193;-70
2023/11/28 07:38:10;;;;;;;0.90;0.90;;;-8.50;99.90;;;;;;5071529;28;20317;-70
2023/11/28 07:40:37;;;;;;;0.93;0.93;;;-8.50;99.90;;;;;;5069563;28;20220;-70
2023/11/28 07:43:04;;;;;;;0.90;0.90;;;-8.40;99.90;;;;;;5051754;28;20212;-68
2023/11/28 07:45:30;;;;;;;0.90;0.90;;;-8.40;99.90;;;;;;5051532;28;20213;-68
2023/11/28 07:47:57;;;;;;;0.80;0.80;;;-8.40;99.90;;;;;;5050158;28;20265;-69
2023/11/28 07:50:26;;;;;;;1.23;1.20;;;-8.40;99.90;;;;;;5051278;28;20417;-68
2023/11/28 07:52:52;;;;;;;0.90;0.90;;;-8.40;99.90;;;;;;5051274;28;20295;-69
2023/11/28 07:55:18;;;;;;;1.00;1.00;;;-8.40;99.90;;;;;;5051439;28;20198;-68
2023/11/28 07:57:44;;;;;;;0.97;0.97;;;-8.40;99.90;;;;;;5051111;28;20225;-69
2023/11/28 08:00:12;;;;;;;0.90;0.90;;;-8.40;99.90;;;;;;5059721;28;20703;-68
2023/11/28 08:02:38;;;;;;;0.80;0.80;;;-8.50;99.90;;;;;;5071178;28;20205;-68
2023/11/28 08:05:04;;;;;;;0.90;0.90;;;-8.50;99.90;;;;;;5071125;28;20296;-69
2023/11/28 08:07:32;;;;;;;0.90;0.90;;;-8.50;99.90;;;;;;5069340;28;20201;-68
2023/11/28 08:10:03;;;;;;;1.00;1.00;;;-8.40;99.90;;;;;;5071102;28;20224;-68
2023/11/28 08:12:28;;;;;;;0.77;0.77;;;-8.40;99.90;;;;;;5070994;28;20230;-69
2023/11/28 08:14:54;;;;;;;1.13;1.13;;;-8.40;99.90;;;;;;5070832;28;20197;-69
2023/11/28 08:17:20;;;;;;;1.00;1.00;;;-8.40;99.90;;;;;;5071040;28;20664;-68
2023/11/28 08:19:46;;;;;;;0.90;0.90;;;-8.30;99.90;;;;;;5070825;28;20197;-69
2023/11/28 08:22:12;;;;;;;0.90;0.90;;;-8.30;99.90;;;;;;5070898;28;20200;-69
2023/11/28 08:24:38;;;;;;;0.90;0.90;;;-8.30;99.90;;;;;;5070597;28;20223;-69
2023/11/28 08:27:05;;;;;;;0.90;0.90;;;-8.30;99.90;;;;;;5070979;28;20224;-69
2023/11/28 08:29:30;;;;;;;0.90;0.90;;;-8.30;99.90;;;;;;5070487;28;20204;-69
2023/11/28 08:31:58;;;;;;;0.80;0.80;;;-8.30;99.90;;;;;;5070481;28;20254;-69
2023/11/28 08:34:25;;;;;;;0.90;0.90;;;-8.30;99.90;;;;;;5070443;28;20203;-69
2023/11/28 08:36:51;;;;;;;0.90;0.90;;;-8.30;99.90;;;;;;5070180;28;20541;-69
2023/11/28 08:39:17;;;;;;;0.90;0.90;;;-8.30;99.90;;;;;;5070541;28;20205;-69
2023/11/28 08:41:43;;;;;;;0.90;0.90;;;-8.30;99.90;;;;;;5069094;28;20208;-69
2023/11/28 08:44:09;;;;;;;0.80;0.80;;;-8.30;99.90;;;;;;5070311;28;20197;-69
2023/11/28 08:46:37;;;;;;;0.93;0.93;;;-8.30;99.90;;;;;;5070324;28;20250;-69
2023/11/28 08:49:03;;;;;;;0.80;0.80;;;-8.30;99.90;;;;;;5070178;28;20200;-68
2023/11/28 08:51:30;;;;;;;1.00;1.00;;;-8.20;99.90;;;;;;5070029;28;20224;-69
2023/11/28 08:53:56;;;;;;;0.80;0.80;;;-8.20;99.90;;;;;;5070180;28;20667;-68
2023/11/28 08:56:23;;;;;;;0.87;0.87;;;-8.10;99.90;;;;;;5069936;28;20303;-68
2023/11/28 08:58:49;;;;;;;1.00;1.00;;;-8.10;99.90;;;;;;5069479;28;20610;-68
2023/11/28 09:01:14;;;;;;;0.90;0.90;;;-8.10;99.90;;;;;;5070019;28;20204;-67
2023/11/28 09:03:40;;;;;;;0.83;0.83;;;-8.00;99.90;;;;;;5062841;28;20648;-67
2023/11/28 09:06:07;;;;;;;0.90;0.90;;;-7.90;99.90;;;;;;5070032;28;20213;-68
2023/11/28 09:08:33;;;;;;;0.90;0.90;;;-7.90;99.90;;;;;;5069913;28;20181;-68
2023/11/28 09:10:59;;;;;;;0.93;0.93;;;-7.90;99.90;;;;;;5070036;28;20226;-68
2023/11/28 09:13:25;;;;;;;1.37;1.27;;;-7.90;99.90;;;;;;5069610;28;20216;-68
2023/11/28 09:15:50;;;;;;;0.90;0.90;;;-7.80;99.90;;;;;;5069809;28;20342;-68
2023/11/28 09:18:16;;;;;;;0.90;0.90;;;-7.80;99.90;;;;;;5069711;28;20196;-67
2023/11/28 09:20:42;;;;;;;0.90;0.90;;;-7.80;99.90;;;;;;5069578;28;20208;-68
2023/11/28 09:23:07;;;;;;;0.90;0.90;;;-7.80;99.90;;;;;;5068384;28;20319;-68
2023/11/28 09:25:33;;;;;;;0.90;0.90;;;-7.80;99.90;;;;;;5069294;28;20554;-68
2023/11/28 09:27:59;;;;;;;0.90;0.90;;;-7.80;99.90;;;;;;5069581;28;20617;-68
2023/11/28 09:30:24;;;;;;;1.10;1.10;;;-7.70;99.90;;;;;;5067695;28;20196;-68
2023/11/28 09:32:51;;;;;;;0.80;0.80;;;-7.70;99.90;;;;;;5069665;28;20222;-68
2023/11/28 09:35:17;;;;;;;0.90;0.90;;;-7.60;99.90;;;;;;5047947;28;20201;-68
2023/11/28 09:37:43;;;;;;;0.90;0.90;;;-7.50;99.90;;;;;;5058894;28;20615;-69
2023/11/28 09:40:09;;;;;;;0.90;0.90;;;-7.50;99.90;;;;;;5069724;28;20193;-69
2023/11/28 09:42:38;;;;;;;0.90;0.90;;;-7.30;99.90;;;;;;5069195;28;20427;-69
2023/11/28 09:45:05;;;;;;;0.87;0.87;;;-7.20;99.90;;;;;;5069174;28;20219;-69
2023/11/28 09:47:39;;;;;;;0.80;0.80;;;-7.20;99.90;;;;;;5069546;28;20257;-70
2023/11/28 09:50:05;;;;;;;0.90;0.90;;;-7.10;99.90;;;;;;5067767;28;20553;-68
2023/11/28 09:52:36;;;;;;;0.90;0.90;;;-7.10;99.90;;;;;;5068859;28;20221;-69
2023/11/28 09:55:03;;;;;;;0.97;0.97;;;-7.10;99.90;;;;;;5069185;28;20201;-68
2023/11/28 09:57:36;;;;;;;0.90;0.90;;;-7.10;99.90;;;;;;5068998;28;20195;-68
2023/11/28 10:00:04;;;;;;;0.90;0.90;;;-7.00;99.90;;;;;;5061841;28;20199;-68
2023/11/28 10:02:31;;;;;;;0.90;0.90;;;-7.00;99.90;;;;;;5068921;28;20572;-68
2023/11/28 10:04:57;;;;;;;0.90;0.90;;;-7.10;99.90;;;;;;5069117;28;20224;-69
2023/11/28 10:07:32;;;;;;;0.90;0.90;;;-7.10;99.90;;;;;;5069058;28;20193;-67
2023/11/28 10:10:00;;;;;;;0.90;0.90;;;-7.10;99.90;;;;;;5068638;28;20192;-69
2023/11/28 10:12:26;;;;;;;1.10;1.10;;;-7.10;99.90;;;;;;5067992;28;20727;-68
2023/11/28 10:14:53;;;;;;;0.90;0.90;;;-7.20;99.90;;;;;;5068887;28;20207;-68
2023/11/28 10:17:19;;;;;;;0.87;0.87;;;-7.10;99.90;;;;;;5067079;28;20664;-71
2023/11/28 10:19:46;;;;;;;0.90;0.90;;;-7.20;99.90;;;;;;5068709;28;20203;-69
2023/11/28 10:22:15;;;;;;;0.90;0.90;;;-7.10;99.90;;;;;;5068817;28;20201;-68
2023/11/28 10:24:41;;;;;;;0.90;0.90;;;-7.20;99.90;;;;;;5068655;28;20236;-68
2023/11/28 10:27:09;;;;;;;0.80;0.80;;;-7.20;99.90;;;;;;5068790;28;20226;-67
2023/11/28 10:29:35;;;;;;;0.93;0.93;;;-7.20;99.90;;;;;;5064505;28;20186;-68
2023/11/28 10:32:01;;;;;;;0.73;0.73;;;-7.20;99.90;;;;;;5048829;28;20204;-67
2023/11/28 10:34:28;;;;;;;0.90;0.90;;;-7.20;99.90;;;;;;5048684;28;20189;-67
2023/11/28 10:36:58;;;;;;;0.80;0.80;;;-7.20;99.90;;;;;;5051497;28;20200;-68
2023/11/28 10:39:25;;;;;;;0.83;0.83;;;-7.20;99.90;;;;;;5068477;28;20205;-67
2023/11/28 10:41:51;;;;;;;1.00;1.00;;;-7.20;99.90;;;;;;5068799;28;20287;-67
2023/11/28 10:44:17;;;;;;;0.90;0.90;;;-7.30;99.90;;;;;;5067159;28;20295;-69
2023/11/28 10:46:42;;;;;;;1.00;1.00;;;-7.40;99.90;;;;;;5068665;28;20204;-68
2023/11/28 10:49:08;;;;;;;1.00;1.00;;;-7.40;99.90;;;;;;5068628;28;20193;-68
2023/11/28 10:51:35;;;;;;;0.90;0.90;;;-7.30;99.90;;;;;;5068493;28;20260;-68
2023/11/28 10:54:09;;;;;;;0.80;0.80;;;-7.30;99.90;;;;;;5068986;28;20216;-68
2023/11/28 10:56:47;;;;;;;0.80;0.80;;;-7.30;99.90;;;;;;5060999;28;20196;-68
2023/11/28 10:59:29;;;;;;;2.53;2.33;;;-7.20;99.90;;;;;;5068601;28;20684;-68
2023/11/28 11:01:55;;;;;;;0.90;0.90;;;-7.30;99.90;;;;;;5068629;28;20193;-68
2023/11/28 11:04:21;;;;;;;0.80;0.80;;;-7.30;99.90;;;;;;5068367;28;20267;-67
2023/11/28 11:06:47;;;;;;;0.87;0.87;;;-7.30;99.90;;;;;;5068655;28;20189;-68
2023/11/28 11:09:12;;;;;;;0.90;0.90;;;-7.30;99.90;;;;;;5068412;28;20199;-68
2023/11/28 11:11:40;;;;;;;0.90;0.90;;;-7.30;99.90;;;;;;5068171;28;20520;-67
2023/11/28 11:14:42;;;;;;;0.90;0.90;;;-7.30;99.90;;;;;;5068294;28;20207;-69
2023/11/28 11:17:29;;;;;;;0.80;0.80;;;-7.30;99.90;;;;;;5068673;28;20215;-70
2023/11/28 11:19:58;;;;;;;0.90;0.90;;;-7.40;99.90;;;;;;5068319;28;20676;-69
2023/11/28 11:22:28;;;;;;;1.00;1.00;;;-7.40;99.90;;;;;;5069154;28;20201;-69
2023/11/28 11:24:54;;;;;;;1.00;1.00;;;-7.40;99.90;;;;;;5070577;28;20295;-69
2023/11/28 11:27:20;;;;;;;0.87;0.87;;;-7.40;99.90;;;;;;5055790;28;20332;-70
2023/11/28 11:29:47;;;;;;;2.40;2.17;;;-7.40;99.90;;;;;;5052006;28;20682;-71
2023/11/28 11:32:15;;;;;;;1.00;1.00;;;-7.40;99.90;;;;;;5052346;28;20655;-69
2023/11/28 11:34:47;;;;;;;0.90;0.90;;;-7.30;99.90;;;;;;5052131;28;20314;-69
2023/11/28 11:37:30;;;;;;;1.23;1.20;;;-7.30;99.90;;;;;;5057501;28;20197;-70
2023/11/28 11:39:58;;;;;;;0.90;0.90;;;-7.30;99.90;;;;;;5071757;28;20200;-69
2023/11/28 11:42:35;;;;;;;0.90;0.90;;;-7.30;99.90;;;;;;5071486;28;20196;-70
2023/11/28 11:45:06;;;;;;;0.90;0.90;;;-7.40;99.90;;;;;;5071763;28;20219;-69
2023/11/28 11:47:33;;;;;;;0.90;0.90;;;-7.40;99.90;;;;;;5070456;28;20739;-70
2023/11/28 11:50:00;;;;;;;0.80;0.80;;;-7.50;99.90;;;;;;5071676;28;20695;-68
2023/11/28 11:52:29;;;;;;;0.87;0.87;;;-7.50;99.90;;;;;;5062358;28;20231;-69
2023/11/28 11:55:05;;;;;;;0.83;0.83;;;-7.50;99.90;;;;;;5071431;28;20253;-69
2023/11/28 11:57:31;;;;;;;0.90;0.90;;;-7.50;99.90;;;;;;5071477;28;20233;-70
2023/11/28 11:59:57;;;;;;;0.90;0.90;;;-7.50;99.90;;;;;;5071376;28;20227;-68
2023/11/28 12:02:23;;;;;;;0.90;0.90;;;-7.50;99.90;;;;;;5071204;28;20201;-69
2023/11/28 12:04:48;;;;;;;0.80;0.80;;;-7.50;99.90;;;;;;5071631;28;20211;-69
2023/11/28 12:07:15;;;;;;;0.90;0.90;;;-7.60;99.90;;;;;;5071217;28;20199;-69
2023/11/28 12:09:42;;;;;;;1.00;1.00;;;-7.60;99.90;;;;;;5071001;28;20189;-69
2023/11/28 12:12:11;;;;;;;0.90;0.90;;;-7.50;99.90;;;;;;5071296;28;20225;-69
2023/11/28 12:14:37;;;;;;;0.80;0.80;;;-7.50;99.90;;;;;;5070831;28;20207;-69
2023/11/28 12:17:03;;;;;;;0.90;0.90;;;-7.60;99.90;;;;;;5071017;28;20279;-69
2023/11/28 12:19:33;;;;;;;0.90;0.90;;;-7.60;99.90;;;;;;5070645;28;20192;-69
2023/11/28 12:22:08;;;;;;;1.00;1.00;;;-7.60;99.90;;;;;;5067734;28;20263;-69
2023/11/28 12:24:34;;;;;;;0.90;0.90;;;-7.60;99.90;;;;;;5050867;28;20205;-69
2023/11/28 12:27:00;;;;;;;1.00;1.00;;;-7.60;99.90;;;;;;5050769;28;20680;-70
2023/11/28 12:29:26;;;;;;;0.90;0.90;;;-7.60;99.90;;;;;;5050511;28;20190;-70
2023/11/28 12:31:55;;;;;;;0.80;0.80;;;-7.60;99.90;;;;;;5050687;28;20559;-69
2023/11/28 12:34:25;;;;;;;0.90;0.90;;;-7.60;99.90;;;;;;5049402;28;20193;-69
2023/11/28 12:36:54;;;;;;;0.90;0.90;;;-7.60;99.90;;;;;;5052827;28;20209;-70
2023/11/28 12:39:25;;;;;;;0.80;0.80;;;-7.50;99.90;;;;;;5070407;28;20197;-69
2023/11/28 12:41:52;;;;;;;0.90;0.90;;;-7.50;99.90;;;;;;5069178;28;20189;-69
2023/11/28 12:44:24;;;;;;;0.90;0.90;;;-7.50;99.90;;;;;;5070389;28;20203;-70